Terminal Aerodrome Forecast
Issued by NWS Glasgow, MT

Current Version | Previous Version | Text Only | Print | Product List | Glossary On
Versions: 1 2 3 4 5 6 7 8 9 10 11 12 13 14 15 16 17 18 19 20 21
000
FTUS45 KGGW 301400 AAB
TAFGGW
TAF AMD
KGGW 301425Z 3014/3112 31008KT 1 1/2SM BR OVC002
      TEMPO 3014/3016 3/4SM BR
     FM301700 31006KT P6SM SCT200
     FM310000 04007KT P6SM SCT030 BKN100
     FM310800 08013KT P6SM OVC015=

USA.gov is the U.S. government's official web portal to all federal, state and local government web resources and services.